createdAt,value
2022-07-29T00:01:44.427Z,72.99
2022-07-29T00:04:14.007Z,73.60
2022-07-29T00:06:42.736Z,73.83
2022-07-29T00:09:10.813Z,74.03
2022-07-29T00:11:39.170Z,74.00
2022-07-29T00:14:07.230Z,74.23
2022-07-29T00:16:35.602Z,73.85
2022-07-29T00:19:04.877Z,74.17
2022-07-29T00:21:32.970Z,74.37
2022-07-29T00:24:00.995Z,74.43
2022-07-29T00:26:32.732Z,74.15
2022-07-29T00:29:32.383Z,73.74
2022-07-29T00:31:50.991Z,73.89
2022-07-29T00:34:37.558Z,73.69
2022-07-29T00:37:05.662Z,73.36
2022-07-29T00:39:35.889Z,73.34
2022-07-29T00:42:05.791Z,73.17
2022-07-29T00:44:41.701Z,73.33
2022-07-29T00:47:11.713Z,73.48
2022-07-29T00:49:43.408Z,73.47
2022-07-29T00:52:12.199Z,73.43
2022-07-29T00:54:43.999Z,73.38
2022-07-29T00:57:14.018Z,73.80
2022-07-29T00:59:42.427Z,73.84
2022-07-29T01:02:10.587Z,74.16
2022-07-29T01:04:38.908Z,74.30
2022-07-29T01:07:07.963Z,74.51
2022-07-29T01:09:45.926Z,74.10
2022-07-29T01:12:22.804Z,74.56
2022-07-29T01:14:52.072Z,74.42
2022-07-29T01:17:28.297Z,74.18
2022-07-29T01:20:02.403Z,74.17
2022-07-29T01:22:36.433Z,74.38
2022-07-29T01:25:51.631Z,74.24
2022-07-29T01:28:46.051Z,74.10
2022-07-29T01:31:25.088Z,73.78
2022-07-29T01:34:01.993Z,73.95
2022-07-29T01:36:46.789Z,73.37
2022-07-29T01:39:27.624Z,73.17
2022-07-29T01:42:37.358Z,72.95
2022-07-29T01:45:20.746Z,73.13
2022-07-29T01:48:03.342Z,73.30
2022-07-29T01:50:39.027Z,72.93
2022-07-29T01:53:10.825Z,72.92
2022-07-29T01:55:43.766Z,73.25
2022-07-29T01:58:13.633Z,73.38
2022-07-29T02:00:44.339Z,73.52
2022-07-29T02:03:15.917Z,74.01
2022-07-29T02:05:46.934Z,74.08
2022-07-29T02:08:17.773Z,73.98
2022-07-29T02:10:48.579Z,73.87
2022-07-29T02:13:19.270Z,73.91
2022-07-29T02:15:49.033Z,74.57
2022-07-29T02:18:19.760Z,75.46
2022-07-29T02:20:54.168Z,76.50
2022-07-29T02:23:24.391Z,76.10
2022-07-29T02:25:58.480Z,75.91
2022-07-29T02:28:29.893Z,76.29
2022-07-29T02:31:03.503Z,76.12
2022-07-29T02:33:33.083Z,75.82
2022-07-29T02:36:02.994Z,76.00
2022-07-29T02:38:50.689Z,76.68
2022-07-29T02:41:31.457Z,76.94
2022-07-29T02:44:34.888Z,77.32
2022-07-29T02:47:41.459Z,77.31
2022-07-29T02:50:32.014Z,77.68
2022-07-29T02:53:06.264Z,77.42
2022-07-29T02:55:49.356Z,77.48
2022-07-29T02:58:29.406Z,78.24
2022-07-29T03:01:06.462Z,78.59
2022-07-29T03:03:38.736Z,78.33
2022-07-29T03:06:08.711Z,78.04
2022-07-29T03:08:59.228Z,78.10
2022-07-29T03:11:42.394Z,77.94
2022-07-29T03:14:17.818Z,78.10
2022-07-29T03:16:49.201Z,78.17
2022-07-29T03:19:18.403Z,78.23
2022-07-29T03:21:47.750Z,78.59
2022-07-29T03:24:27.996Z,78.79
2022-07-29T03:26:57.569Z,78.62
2022-07-29T03:29:32.939Z,79.26
2022-07-29T03:32:08.281Z,79.72
2022-07-29T03:34:39.034Z,80.30
2022-07-29T03:37:07.765Z,79.89
2022-07-29T03:39:42.058Z,79.85
2022-07-29T03:42:15.069Z,79.77
2022-07-29T03:44:46.781Z,79.72
2022-07-29T03:47:16.234Z,80.07
2022-07-29T03:49:48.800Z,79.38
2022-07-29T03:52:16.939Z,79.33
2022-07-29T03:54:45.319Z,79.11
2022-07-29T03:57:16.179Z,79.04
2022-07-29T03:59:45.448Z,78.83
2022-07-29T04:02:14.922Z,78.58
2022-07-29T04:04:45.893Z,78.29
2022-07-29T04:07:15.417Z,78.10
2022-07-29T04:09:43.651Z,78.46
2022-07-29T04:12:11.808Z,78.15
2022-07-29T04:14:40.027Z,77.86
2022-07-29T04:17:11.359Z,77.72
2022-07-29T04:19:39.477Z,77.74
2022-07-29T04:22:07.406Z,77.44
2022-07-29T04:24:35.896Z,77.31
2022-07-29T04:27:04.007Z,77.27
2022-07-29T04:29:32.171Z,76.95
2022-07-29T04:32:00.081Z,76.84
2022-07-29T04:34:28.477Z,77.00
2022-07-29T04:36:56.987Z,77.00
2022-07-29T04:39:25.758Z,76.92
2022-07-29T04:41:57.779Z,77.44
2022-07-29T04:44:29.051Z,77.23
2022-07-29T04:46:58.481Z,76.89
2022-07-29T04:49:26.831Z,76.89
2022-07-29T04:51:55.190Z,76.54
2022-07-29T04:54:23.356Z,76.44
2022-07-29T04:56:51.427Z,76.38
2022-07-29T04:59:19.553Z,76.32
2022-07-29T05:01:47.673Z,76.29
2022-07-29T05:04:16.037Z,75.72
2022-07-29T05:06:44.721Z,75.81
2022-07-29T05:09:12.811Z,75.79
2022-07-29T05:11:40.904Z,75.56
2022-07-29T05:14:09.050Z,75.43
2022-07-29T05:16:37.761Z,75.29
2022-07-29T05:19:07.022Z,75.19
2022-07-29T05:21:37.741Z,74.76
2022-07-29T05:24:06.196Z,74.65
2022-07-29T05:26:34.283Z,74.33
2022-07-29T05:29:02.580Z,74.31
2022-07-29T05:31:30.727Z,74.18
2022-07-29T05:33:58.894Z,73.99
2022-07-29T05:36:27.383Z,74.08
2022-07-29T05:38:55.598Z,73.84
2022-07-29T05:41:23.913Z,73.47
2022-07-29T05:43:52.097Z,73.28
2022-07-29T05:46:20.793Z,73.02
2022-07-29T05:48:49.133Z,72.57
2022-07-29T05:51:17.337Z,72.06
2022-07-29T05:53:46.069Z,71.77
2022-07-29T05:56:14.121Z,71.56
2022-07-29T05:58:42.140Z,71.33
2022-07-29T06:01:10.258Z,71.17
2022-07-29T06:03:39.111Z,70.73
2022-07-29T06:06:08.242Z,70.48
2022-07-29T06:08:37.412Z,70.07
2022-07-29T06:11:06.129Z,69.54
2022-07-29T06:13:34.171Z,69.07
2022-07-29T06:16:02.322Z,68.76
2022-07-29T06:18:30.620Z,67.94
2022-07-29T06:21:01.346Z,67.60
2022-07-29T06:23:29.485Z,67.65
2022-07-29T06:25:57.472Z,66.93
2022-07-29T06:28:25.603Z,66.58
2022-07-29T06:30:53.647Z,66.44
2022-07-29T06:33:22.887Z,66.41
2022-07-29T06:35:53.685Z,65.56
2022-07-29T06:38:31.174Z,65.32
2022-07-29T06:41:07.087Z,65.64
2022-07-29T06:43:50.428Z,64.49
2022-07-29T06:46:20.836Z,63.50
2022-07-29T06:48:49.805Z,62.55
2022-07-29T06:51:23.348Z,61.45
2022-07-29T06:53:59.076Z,60.71
2022-07-29T06:56:38.148Z,60.23
2022-07-29T06:59:09.613Z,59.92
2022-07-29T07:01:39.182Z,59.23
2022-07-29T07:04:09.874Z,58.90
2022-07-29T07:06:38.957Z,58.65
2022-07-29T07:09:07.363Z,57.66
2022-07-29T07:11:35.513Z,56.98
2022-07-29T07:14:04.368Z,56.13
2022-07-29T07:16:33.545Z,55.34
2022-07-29T07:19:02.010Z,55.13
2022-07-29T07:21:31.357Z,53.80
2022-07-29T07:24:00.640Z,53.81
2022-07-29T07:26:28.823Z,53.48
2022-07-29T07:28:56.936Z,52.86
2022-07-29T07:31:25.052Z,52.32
2022-07-29T07:33:54.631Z,51.11
2022-07-29T07:36:23.815Z,50.90
2022-07-29T07:38:51.908Z,50.34
2022-07-29T07:41:19.912Z,49.43
2022-07-29T07:43:48.263Z,49.06
2022-07-29T07:46:18.159Z,48.75
2022-07-29T07:48:46.258Z,47.91
2022-07-29T07:51:14.358Z,48.16
2022-07-29T07:53:44.153Z,47.29
2022-07-29T07:56:12.984Z,46.72
2022-07-29T07:58:41.378Z,46.51
2022-07-29T08:01:10.305Z,45.76
2022-07-29T08:03:39.018Z,45.50
2022-07-29T08:06:07.224Z,44.56
2022-07-29T08:08:35.352Z,44.44
2022-07-29T08:11:09.037Z,43.53
2022-07-29T08:13:39.549Z,42.82
2022-07-29T08:16:13.186Z,42.34
2022-07-29T08:18:42.972Z,42.26
2022-07-29T08:21:11.193Z,42.33
2022-07-29T08:23:54.388Z,41.87
2022-07-29T08:26:27.078Z,41.49
2022-07-29T08:28:55.334Z,41.38
2022-07-29T08:31:23.555Z,41.07
2022-07-29T08:33:51.561Z,40.33
2022-07-29T08:36:22.145Z,39.97
2022-07-29T08:38:50.670Z,39.51
2022-07-29T08:41:20.666Z,38.99
2022-07-29T08:43:50.170Z,38.49
2022-07-29T08:46:18.830Z,38.25
2022-07-29T08:48:48.239Z,37.90
2022-07-29T08:51:19.269Z,38.03
2022-07-29T08:53:49.561Z,37.40
2022-07-29T08:56:20.567Z,37.18
2022-07-29T08:58:52.056Z,37.08
2022-07-29T09:01:35.584Z,36.55
2022-07-29T09:04:08.663Z,36.36
2022-07-29T09:06:43.122Z,36.61
2022-07-29T09:09:11.426Z,36.49
2022-07-29T09:11:39.657Z,35.70
2022-07-29T09:14:08.306Z,35.09
2022-07-29T09:16:54.867Z,34.94
2022-07-29T09:19:32.121Z,34.32
2022-07-29T09:22:03.065Z,34.38
2022-07-29T09:24:45.744Z,34.36
2022-07-29T09:27:30.117Z,34.08
2022-07-29T09:30:04.913Z,34.04
2022-07-29T09:32:34.780Z,34.31
2022-07-29T09:35:23.299Z,33.99
2022-07-29T09:37:51.540Z,33.86
2022-07-29T09:40:25.758Z,34.63
2022-07-29T09:42:57.959Z,34.87
2022-07-29T09:45:30.552Z,35.12
2022-07-29T09:48:01.641Z,34.28
2022-07-29T09:50:43.121Z,34.28
2022-07-29T09:53:12.327Z,34.26
2022-07-29T09:55:53.344Z,34.20
2022-07-29T09:58:23.631Z,34.46
2022-07-29T10:00:53.476Z,34.67
2022-07-29T10:03:22.719Z,35.40
2022-07-29T10:06:11.087Z,36.05
2022-07-29T10:08:39.580Z,35.97
2022-07-29T10:11:19.059Z,35.62
2022-07-29T10:13:49.064Z,35.23
2022-07-29T10:16:17.992Z,35.20
2022-07-29T10:18:47.940Z,35.23
2022-07-29T10:21:22.474Z,35.27
2022-07-29T10:24:03.633Z,34.99
2022-07-29T10:26:32.477Z,34.65
2022-07-29T10:29:01.619Z,34.69
2022-07-29T10:32:04.891Z,34.53
2022-07-29T10:34:58.234Z,34.60
2022-07-29T10:37:29.234Z,34.60
2022-07-29T10:40:37.949Z,34.70
2022-07-29T10:43:20.668Z,34.65
2022-07-29T10:45:50.934Z,34.72
2022-07-29T10:48:20.881Z,34.78
2022-07-29T10:51:01.468Z,35.00
2022-07-29T10:53:53.451Z,35.01
2022-07-29T10:56:27.272Z,34.95
2022-07-29T10:59:24.224Z,34.90
2022-07-29T11:02:10.659Z,35.53
2022-07-29T11:04:47.157Z,36.04
2022-07-29T11:07:17.594Z,36.72
2022-07-29T11:10:05.670Z,37.05
2022-07-29T11:12:39.930Z,36.88
2022-07-29T11:15:19.955Z,36.99
2022-07-29T11:17:54.150Z,36.78
2022-07-29T11:20:42.712Z,37.13
2022-07-29T11:23:38.008Z,37.28
2022-07-29T11:26:21.154Z,37.28
2022-07-29T11:28:59.106Z,37.30
2022-07-29T11:31:39.300Z,36.96
2022-07-29T11:34:31.519Z,37.10
2022-07-29T11:37:06.449Z,37.50
2022-07-29T11:39:37.638Z,38.04
2022-07-29T11:42:18.284Z,38.19
2022-07-29T11:45:43.825Z,38.26
2022-07-29T11:48:29.854Z,38.15
2022-07-29T11:50:49.896Z,38.19
2022-07-29T11:53:17.946Z,38.35
2022-07-29T11:55:50.928Z,38.51
2022-07-29T11:58:25.043Z,38.64
2022-07-29T12:01:04.923Z,38.78
2022-07-29T12:03:36.064Z,38.87
2022-07-29T12:06:18.208Z,38.94
2022-07-29T12:08:47.540Z,39.03
2022-07-29T12:11:23.765Z,39.12
2022-07-29T12:13:52.746Z,39.01
2022-07-29T12:16:25.627Z,38.90
2022-07-29T12:19:02.947Z,38.97
2022-07-29T12:21:52.304Z,38.88
2022-07-29T12:24:26.892Z,38.91
2022-07-29T12:26:57.636Z,38.80
2022-07-29T12:29:35.475Z,41.71
2022-07-29T12:32:14.775Z,43.77
2022-07-29T12:34:48.096Z,45.01
2022-07-29T12:37:16.580Z,45.87
2022-07-29T12:39:45.150Z,46.77
2022-07-29T12:42:18.530Z,47.20
2022-07-29T12:44:52.434Z,47.60
2022-07-29T12:47:21.534Z,48.31
2022-07-29T12:49:51.127Z,49.20
2022-07-29T12:52:33.843Z,50.60
2022-07-29T12:55:03.035Z,53.57
2022-07-29T12:57:31.293Z,54.93
2022-07-29T13:00:11.042Z,56.20
2022-07-29T13:02:40.915Z,57.37
2022-07-29T13:05:11.400Z,58.54
2022-07-29T13:07:54.418Z,59.45
2022-07-29T13:10:30.454Z,59.31
2022-07-29T13:13:13.565Z,59.14
2022-07-29T13:15:44.113Z,57.94
2022-07-29T13:18:31.562Z,57.72
2022-07-29T13:21:13.316Z,57.86
2022-07-29T13:23:41.917Z,57.36
2022-07-29T13:26:17.366Z,57.55
2022-07-29T13:28:48.122Z,57.71
2022-07-29T13:31:16.900Z,57.47
2022-07-29T13:33:44.934Z,56.96
2022-07-29T13:36:13.231Z,56.78
2022-07-29T13:38:41.353Z,56.62
2022-07-29T13:41:09.486Z,57.29
2022-07-29T13:43:38.672Z,57.98
2022-07-29T13:46:06.783Z,59.36
2022-07-29T13:48:34.891Z,60.37
2022-07-29T13:51:03.403Z,61.27
2022-07-29T13:53:31.493Z,62.56
2022-07-29T13:55:59.840Z,63.24
2022-07-29T13:58:27.998Z,63.48
2022-07-29T14:00:58.001Z,64.16
2022-07-29T14:03:26.241Z,64.49
2022-07-29T14:05:54.309Z,64.16
2022-07-29T14:08:22.255Z,64.74
2022-07-29T14:10:52.123Z,65.49
2022-07-29T14:13:25.376Z,66.37
2022-07-29T14:15:54.362Z,67.45
2022-07-29T14:18:22.400Z,68.27
2022-07-29T14:20:50.768Z,68.52
2022-07-29T14:23:20.220Z,69.00
2022-07-29T14:25:49.370Z,69.79
2022-07-29T14:28:17.977Z,70.44
2022-07-29T14:30:46.196Z,70.83
2022-07-29T14:33:14.633Z,71.21
2022-07-29T14:35:42.742Z,71.56
2022-07-29T14:38:10.749Z,71.85
2022-07-29T14:40:42.204Z,72.16
2022-07-29T14:43:10.293Z,72.13
2022-07-29T14:45:38.349Z,72.28
2022-07-29T14:48:06.755Z,72.42
2022-07-29T14:50:34.860Z,72.94
2022-07-29T14:53:02.869Z,72.82
2022-07-29T14:55:31.108Z,72.75
2022-07-29T14:58:08.662Z,72.89
2022-07-29T15:00:38.826Z,73.40
2022-07-29T15:03:33.877Z,73.92
2022-07-29T15:06:02.782Z,73.83
2022-07-29T15:08:31.754Z,73.84
2022-07-29T15:11:00.499Z,74.05
2022-07-29T15:13:28.593Z,74.17
2022-07-29T15:16:00.100Z,73.97
2022-07-29T15:18:28.448Z,73.77
2022-07-29T15:20:56.414Z,73.97
2022-07-29T15:23:24.477Z,73.98
2022-07-29T15:25:52.559Z,74.17
2022-07-29T15:28:20.554Z,74.37
2022-07-29T15:30:48.504Z,74.66
2022-07-29T15:33:16.552Z,74.81
2022-07-29T15:35:44.743Z,74.69
2022-07-29T15:38:12.763Z,74.89
2022-07-29T15:40:44.735Z,74.57
2022-07-29T15:43:12.951Z,74.36
2022-07-29T15:46:06.748Z,74.33
2022-07-29T15:48:39.255Z,74.35
2022-07-29T15:51:07.261Z,74.04
2022-07-29T15:53:35.431Z,73.41
2022-07-29T15:56:04.640Z,73.10
2022-07-29T15:58:32.589Z,73.38
2022-07-29T16:01:00.733Z,73.45
2022-07-29T16:03:28.952Z,73.17
2022-07-29T16:05:57.320Z,72.87
2022-07-29T16:08:25.650Z,72.60
2022-07-29T16:10:53.805Z,71.78
2022-07-29T16:13:23.206Z,71.42
2022-07-29T16:16:02.215Z,71.29
2022-07-29T16:18:31.131Z,70.58
2022-07-29T16:20:59.233Z,70.14
2022-07-29T16:23:27.279Z,70.08
2022-07-29T16:26:00.034Z,69.71
2022-07-29T16:28:30.997Z,69.64
2022-07-29T16:30:59.215Z,69.28
2022-07-29T16:33:27.362Z,69.06
2022-07-29T16:35:55.376Z,69.52
2022-07-29T16:38:23.469Z,69.35
2022-07-29T16:40:51.459Z,68.65
2022-07-29T16:43:19.398Z,68.53
2022-07-29T16:45:47.631Z,67.71
2022-07-29T16:48:18.072Z,65.94
2022-07-29T16:50:47.007Z,65.27
2022-07-29T16:53:15.022Z,64.79
2022-07-29T16:55:43.322Z,64.30
2022-07-29T16:58:11.847Z,63.66
2022-07-29T17:00:40.084Z,63.63
2022-07-29T17:03:08.179Z,63.50
2022-07-29T17:05:50.668Z,63.63
2022-07-29T17:08:22.882Z,63.63
2022-07-29T17:10:51.297Z,64.00
2022-07-29T17:13:19.606Z,64.07
2022-07-29T17:15:48.135Z,63.87
2022-07-29T17:18:16.252Z,63.57
2022-07-29T17:20:44.310Z,63.68
2022-07-29T17:23:12.225Z,63.49
2022-07-29T17:25:41.020Z,63.42
2022-07-29T17:28:09.022Z,63.54
2022-07-29T17:30:37.078Z,63.56
2022-07-29T17:33:05.083Z,63.78
2022-07-29T17:35:51.781Z,63.84
2022-07-29T17:38:19.805Z,63.82
2022-07-29T17:40:47.798Z,63.66
2022-07-29T17:43:15.875Z,63.54
2022-07-29T17:45:50.226Z,63.37
2022-07-29T17:48:19.896Z,63.72
2022-07-29T17:50:48.768Z,63.82
2022-07-29T17:53:17.026Z,64.11
2022-07-29T17:55:46.433Z,64.10
2022-07-29T17:58:16.536Z,64.27
2022-07-29T18:00:44.873Z,64.79
2022-07-29T18:03:13.203Z,65.32
2022-07-29T18:05:41.591Z,65.45
2022-07-29T18:08:09.737Z,65.48
2022-07-29T18:10:37.844Z,65.54
2022-07-29T18:13:05.868Z,65.91
2022-07-29T18:15:33.946Z,66.46
2022-07-29T18:18:01.914Z,67.13
2022-07-29T18:20:30.060Z,67.17
2022-07-29T18:22:58.151Z,67.33
2022-07-29T18:25:26.851Z,67.57
2022-07-29T18:27:59.877Z,67.95
2022-07-29T18:30:29.786Z,68.01
2022-07-29T18:33:19.635Z,68.26
2022-07-29T18:35:51.055Z,68.73
2022-07-29T18:38:19.819Z,68.82
2022-07-29T18:40:48.536Z,68.77
2022-07-29T18:43:16.580Z,69.24
2022-07-29T18:45:44.688Z,69.00
2022-07-29T18:48:13.816Z,68.90
2022-07-29T18:50:42.672Z,68.95
2022-07-29T18:53:11.221Z,69.43
2022-07-29T18:55:39.442Z,69.52
2022-07-29T18:58:07.490Z,69.55
2022-07-29T19:00:35.639Z,69.62
2022-07-29T19:03:04.170Z,69.52
2022-07-29T19:05:32.815Z,69.55
2022-07-29T19:08:01.081Z,69.22
2022-07-29T19:10:29.663Z,69.11
2022-07-29T19:12:57.994Z,69.32
2022-07-29T19:15:26.247Z,69.23
2022-07-29T19:17:57.808Z,69.23
2022-07-29T19:20:29.627Z,69.13
2022-07-29T19:22:58.731Z,69.23
2022-07-29T19:25:26.831Z,69.47
2022-07-29T19:27:54.898Z,69.46
2022-07-29T19:30:22.914Z,69.39
2022-07-29T19:32:50.987Z,69.64
2022-07-29T19:35:28.519Z,69.97
2022-07-29T19:37:58.930Z,70.29
2022-07-29T19:40:28.187Z,70.55
2022-07-29T19:42:58.166Z,70.79
2022-07-29T19:45:26.829Z,70.79
2022-07-29T19:48:00.801Z,70.77
2022-07-29T19:50:30.336Z,70.67
2022-07-29T19:52:59.350Z,70.44
2022-07-29T19:55:27.645Z,70.62
2022-07-29T19:57:56.129Z,70.73
2022-07-29T20:00:25.253Z,70.48
2022-07-29T20:02:53.774Z,70.63
2022-07-29T20:05:21.946Z,70.87
2022-07-29T20:07:56.408Z,71.14
2022-07-29T20:10:24.514Z,71.79
2022-07-29T20:12:53.866Z,71.69
2022-07-29T20:15:23.843Z,71.43
2022-07-29T20:17:55.316Z,71.66
2022-07-29T20:20:26.173Z,71.26
2022-07-29T20:22:54.475Z,71.33
2022-07-29T20:25:24.339Z,71.12
2022-07-29T20:27:52.687Z,71.94
2022-07-29T20:30:22.544Z,72.00
2022-07-29T20:32:50.796Z,71.79
2022-07-29T20:35:20.226Z,71.76
2022-07-29T20:37:56.311Z,71.76
2022-07-29T20:40:26.603Z,71.45
2022-07-29T20:42:55.693Z,71.55
2022-07-29T20:45:24.405Z,71.61
2022-07-29T20:47:53.358Z,71.83
2022-07-29T20:50:23.959Z,71.83
2022-07-29T20:52:53.095Z,71.81
2022-07-29T20:55:21.901Z,71.68
2022-07-29T20:57:50.191Z,71.38
2022-07-29T21:00:18.522Z,71.64
2022-07-29T21:02:47.409Z,71.72
2022-07-29T21:05:16.324Z,71.91
2022-07-29T21:07:44.386Z,72.22
2022-07-29T21:10:14.434Z,73.18
2022-07-29T21:12:42.622Z,73.41
2022-07-29T21:15:13.661Z,73.55
2022-07-29T21:17:48.481Z,73.49
2022-07-29T21:20:18.123Z,73.24
2022-07-29T21:22:46.191Z,73.22
2022-07-29T21:25:14.187Z,73.07
2022-07-29T21:28:00.885Z,73.08
2022-07-29T21:30:29.143Z,72.85
2022-07-29T21:32:57.327Z,72.83
2022-07-29T21:35:52.109Z,73.49
2022-07-29T21:38:16.417Z,73.78
2022-07-29T21:40:47.016Z,73.79
2022-07-29T21:43:16.318Z,73.34
2022-07-29T21:45:47.835Z,73.17
2022-07-29T21:48:20.597Z,73.48
2022-07-29T21:50:50.406Z,73.54
2022-07-29T21:53:20.817Z,73.51
2022-07-29T21:55:51.605Z,73.48
2022-07-29T21:58:22.972Z,73.38
2022-07-29T22:00:51.155Z,73.38
2022-07-29T22:03:19.537Z,73.39
2022-07-29T22:05:47.653Z,73.47
2022-07-29T22:08:15.771Z,73.55
2022-07-29T22:10:44.626Z,73.61
2022-07-29T22:13:12.820Z,73.35
2022-07-29T22:15:46.828Z,73.26
2022-07-29T22:18:21.018Z,73.20
2022-07-29T22:20:50.701Z,73.56
2022-07-29T22:23:19.177Z,73.56
2022-07-29T22:25:47.538Z,73.59
2022-07-29T22:28:15.754Z,73.72
2022-07-29T22:30:43.860Z,74.07
2022-07-29T22:33:17.652Z,74.16
2022-07-29T22:35:48.599Z,74.07
2022-07-29T22:38:20.218Z,73.93
2022-07-29T22:40:50.587Z,73.92
2022-07-29T22:43:19.220Z,73.90
2022-07-29T22:45:48.100Z,73.81
2022-07-29T22:48:17.231Z,73.82
2022-07-29T22:50:45.537Z,73.94
2022-07-29T22:53:13.882Z,73.75
2022-07-29T22:55:44.598Z,74.08
2022-07-29T22:58:12.978Z,73.98
2022-07-29T23:00:41.428Z,73.82
2022-07-29T23:03:09.527Z,74.08
2022-07-29T23:05:37.881Z,74.12
2022-07-29T23:08:06.267Z,74.19
2022-07-29T23:10:34.661Z,74.11
2022-07-29T23:13:02.778Z,74.18
2022-07-29T23:15:31.291Z,73.96
2022-07-29T23:17:59.648Z,74.16
2022-07-29T23:20:28.268Z,74.29
2022-07-29T23:22:56.507Z,74.46
2022-07-29T23:25:25.563Z,74.26
2022-07-29T23:27:53.914Z,74.32
2022-07-29T23:30:22.121Z,74.32
2022-07-29T23:32:50.369Z,74.32
2022-07-29T23:35:18.779Z,74.50
2022-07-29T23:37:47.160Z,74.61
2022-07-29T23:40:15.897Z,74.71
2022-07-29T23:42:44.298Z,74.85
2022-07-29T23:45:14.247Z,74.96
2022-07-29T23:47:42.799Z,75.05
2022-07-29T23:50:12.648Z,75.13
2022-07-29T23:52:42.529Z,75.02
2022-07-29T23:55:37.497Z,75.12
2022-07-29T23:58:00.809Z,75.20
